createdAt,value
2023-03-06T00:00:50.043Z,2.97
2023-03-06T00:03:17.085Z,3.03
2023-03-06T00:05:44.781Z,3.08
2023-03-06T00:08:12.020Z,3.09
2023-03-06T00:10:40.281Z,3.11
2023-03-06T00:13:12.347Z,3.14
2023-03-06T00:15:39.436Z,3.17
2023-03-06T00:18:07.090Z,3.21
2023-03-06T00:20:35.260Z,3.23
2023-03-06T00:23:02.222Z,3.28
2023-03-06T00:25:29.114Z,3.31
2023-03-06T00:27:56.343Z,3.34
2023-03-06T00:30:25.100Z,3.38
2023-03-06T00:32:53.380Z,3.34
2023-03-06T00:35:20.713Z,3.36
2023-03-06T00:37:47.825Z,3.37
2023-03-06T00:40:17.975Z,3.38
2023-03-06T00:42:45.614Z,3.37
2023-03-06T00:45:12.997Z,3.42
2023-03-06T00:47:40.450Z,3.43
2023-03-06T00:50:08.757Z,3.37
2023-03-06T00:52:36.243Z,3.41
2023-03-06T00:55:03.854Z,3.48
2023-03-06T00:57:30.889Z,3.51
2023-03-06T00:59:57.708Z,3.52
2023-03-06T01:02:25.193Z,3.55
2023-03-06T01:04:54.781Z,3.59
2023-03-06T01:07:21.701Z,3.56
2023-03-06T01:09:48.558Z,3.57
2023-03-06T01:12:15.769Z,3.59
2023-03-06T01:14:42.980Z,3.59
2023-03-06T01:17:10.609Z,3.56
2023-03-06T01:19:37.642Z,3.51
2023-03-06T01:22:04.497Z,3.52
2023-03-06T01:24:31.806Z,3.62
2023-03-06T01:26:59.342Z,3.59
2023-03-06T01:29:26.604Z,3.60
2023-03-06T01:31:53.685Z,3.61
2023-03-06T01:34:21.097Z,3.62
2023-03-06T01:36:48.194Z,3.64
2023-03-06T01:39:16.325Z,3.67
2023-03-06T01:41:43.326Z,3.62
2023-03-06T01:44:15.756Z,3.64
2023-03-06T01:46:44.750Z,3.57
2023-03-06T01:49:22.441Z,3.52
2023-03-06T01:52:06.739Z,3.42
2023-03-06T01:54:43.323Z,3.24
2023-03-06T01:57:18.830Z,3.16
2023-03-06T01:59:49.557Z,3.12
2023-03-06T02:02:16.594Z,3.13
2023-03-06T02:04:44.328Z,3.08
2023-03-06T02:07:11.795Z,3.04
2023-03-06T02:09:39.168Z,3.00
2023-03-06T02:12:10.475Z,2.97
2023-03-06T02:14:39.587Z,2.90
2023-03-06T02:17:08.912Z,2.82
2023-03-06T02:19:41.850Z,2.79
2023-03-06T02:22:08.991Z,2.75
2023-03-06T02:25:14.249Z,2.66
2023-03-06T02:27:41.541Z,2.59
2023-03-06T02:30:10.268Z,2.51
2023-03-06T02:32:37.242Z,2.42
2023-03-06T02:35:04.667Z,2.36
2023-03-06T02:37:31.528Z,2.28
2023-03-06T02:40:13.309Z,2.15
2023-03-06T02:42:47.231Z,2.09
2023-03-06T02:45:21.824Z,2.10
2023-03-06T02:47:48.837Z,2.05
2023-03-06T02:50:15.698Z,2.04
2023-03-06T02:52:42.744Z,2.04
2023-03-06T02:55:09.751Z,2.05
2023-03-06T02:57:36.758Z,1.98
2023-03-06T03:00:04.076Z,1.93
2023-03-06T03:02:31.012Z,1.84
2023-03-06T03:04:58.423Z,1.78
2023-03-06T03:07:25.295Z,1.73
2023-03-06T03:09:52.276Z,1.70
2023-03-06T03:12:20.099Z,1.60
2023-03-06T03:14:47.385Z,1.55
2023-03-06T03:17:14.450Z,1.53
2023-03-06T03:19:41.434Z,1.50
2023-03-06T03:22:08.488Z,1.45
2023-03-06T03:24:35.334Z,1.44
2023-03-06T03:27:03.446Z,1.36
2023-03-06T03:29:31.446Z,1.38
2023-03-06T03:31:58.475Z,1.37
2023-03-06T03:34:26.841Z,1.40
2023-03-06T03:36:54.240Z,1.36
2023-03-06T03:39:21.883Z,1.36
2023-03-06T03:41:48.969Z,1.32
2023-03-06T03:44:16.745Z,1.25
2023-03-06T03:46:44.151Z,1.21
2023-03-06T03:49:16.464Z,1.29
2023-03-06T03:51:44.706Z,1.36
2023-03-06T03:54:11.756Z,1.37
2023-03-06T03:56:44.530Z,1.35
2023-03-06T03:59:17.875Z,1.34
2023-03-06T04:02:07.735Z,1.39
2023-03-06T04:04:43.175Z,1.46
2023-03-06T04:07:11.042Z,1.52
2023-03-06T04:09:39.894Z,1.49
2023-03-06T04:12:08.388Z,1.51
2023-03-06T04:14:37.050Z,1.58
2023-03-06T04:17:05.031Z,1.59
2023-03-06T04:19:32.496Z,1.64
2023-03-06T04:22:01.722Z,1.72
2023-03-06T04:24:30.872Z,1.80
2023-03-06T04:26:57.710Z,1.80
2023-03-06T04:29:25.282Z,1.68
2023-03-06T04:31:52.312Z,1.56
2023-03-06T04:34:19.248Z,1.45
2023-03-06T04:36:46.930Z,1.43
2023-03-06T04:39:17.232Z,1.47
2023-03-06T04:41:44.678Z,1.50
2023-03-06T04:44:11.948Z,1.53
2023-03-06T04:46:38.804Z,1.48
2023-03-06T04:49:05.890Z,1.46
2023-03-06T04:51:32.872Z,1.43
2023-03-06T04:54:00.291Z,1.46
2023-03-06T04:56:27.345Z,1.49
2023-03-06T04:58:54.264Z,1.52
2023-03-06T05:01:21.201Z,1.47
2023-03-06T05:03:49.874Z,1.33
2023-03-06T05:06:16.784Z,1.20
2023-03-06T05:08:43.669Z,1.11
2023-03-06T05:11:10.577Z,1.05
2023-03-06T05:13:37.481Z,1.01
2023-03-06T05:16:06.065Z,0.97
2023-03-06T05:18:34.891Z,1.07
2023-03-06T05:21:02.417Z,1.21
2023-03-06T05:23:31.077Z,1.26
2023-03-06T05:25:58.682Z,1.27
2023-03-06T05:28:26.656Z,1.21
2023-03-06T05:30:53.774Z,1.20
2023-03-06T05:33:20.762Z,1.13
2023-03-06T05:35:48.545Z,1.08
2023-03-06T05:38:16.391Z,1.10
2023-03-06T05:40:44.477Z,1.12
2023-03-06T05:43:12.046Z,1.08
2023-03-06T05:45:40.753Z,1.02
2023-03-06T05:48:08.260Z,0.85
2023-03-06T05:50:35.494Z,0.81
2023-03-06T05:53:02.501Z,0.81
2023-03-06T05:55:29.981Z,0.79
2023-03-06T05:57:56.957Z,0.77
2023-03-06T06:00:25.165Z,0.69
2023-03-06T06:02:52.073Z,0.63
2023-03-06T06:05:19.034Z,0.55
2023-03-06T06:07:45.837Z,0.47
2023-03-06T06:10:12.716Z,0.40
2023-03-06T06:12:39.912Z,0.46
2023-03-06T06:15:07.394Z,0.48
2023-03-06T06:17:34.267Z,0.53
2023-03-06T06:20:01.630Z,0.46
2023-03-06T06:22:28.528Z,0.41
2023-03-06T06:24:55.336Z,0.39
2023-03-06T06:27:22.362Z,0.36
2023-03-06T06:29:52.377Z,0.37
2023-03-06T06:32:19.646Z,0.38
2023-03-06T06:34:46.780Z,0.37
2023-03-06T06:37:13.650Z,0.36
2023-03-06T06:39:40.772Z,0.36
2023-03-06T06:42:29.092Z,0.33
2023-03-06T06:44:57.053Z,0.38
2023-03-06T06:47:34.468Z,0.45
2023-03-06T06:50:01.838Z,0.51
2023-03-06T06:52:28.794Z,0.59
2023-03-06T06:54:55.629Z,0.64
2023-03-06T06:57:22.670Z,0.69
2023-03-06T06:59:52.307Z,0.77
2023-03-06T07:02:20.202Z,0.84
2023-03-06T07:05:02.503Z,0.87
2023-03-06T07:07:31.302Z,0.91
2023-03-06T07:09:58.399Z,0.99
2023-03-06T07:12:32.432Z,1.01
2023-03-06T07:14:59.491Z,1.08
2023-03-06T07:17:26.403Z,1.17
2023-03-06T07:19:53.244Z,1.27
2023-03-06T07:22:20.263Z,1.39
2023-03-06T07:24:47.227Z,1.47
2023-03-06T07:27:14.115Z,1.54
2023-03-06T07:29:43.590Z,1.61
2023-03-06T07:32:11.346Z,1.65
2023-03-06T07:34:38.256Z,1.68
2023-03-06T07:37:08.448Z,1.71
2023-03-06T07:39:35.484Z,1.75
2023-03-06T07:42:02.457Z,1.85
2023-03-06T07:44:29.818Z,1.95
2023-03-06T07:46:56.754Z,2.00
2023-03-06T07:49:23.662Z,2.04
2023-03-06T07:51:51.147Z,2.18
2023-03-06T07:54:18.249Z,2.25
2023-03-06T07:56:45.139Z,2.29
2023-03-06T07:59:12.244Z,2.37
2023-03-06T08:01:40.286Z,2.42
2023-03-06T08:04:07.271Z,2.51
2023-03-06T08:06:34.519Z,2.61
2023-03-06T08:09:01.570Z,2.69
2023-03-06T08:11:30.504Z,2.84
2023-03-06T08:13:58.482Z,2.93
2023-03-06T08:16:28.373Z,2.94
2023-03-06T08:18:56.458Z,2.91
2023-03-06T08:21:25.794Z,2.82
2023-03-06T08:23:52.803Z,2.87
2023-03-06T08:26:22.648Z,2.96
2023-03-06T08:28:51.840Z,3.03
2023-03-06T08:31:24.734Z,3.12
2023-03-06T08:33:52.564Z,3.20
2023-03-06T08:36:19.557Z,3.31
2023-03-06T08:38:46.428Z,3.41
2023-03-06T08:41:13.736Z,3.54
2023-03-06T08:43:40.630Z,3.58
2023-03-06T08:46:07.600Z,3.68
2023-03-06T08:48:34.995Z,3.74
2023-03-06T08:51:02.301Z,3.84
2023-03-06T08:53:42.151Z,3.83
2023-03-06T08:56:17.350Z,3.80
2023-03-06T08:58:44.759Z,3.83
2023-03-06T09:01:24.380Z,3.88
2023-03-06T09:03:54.516Z,3.94
2023-03-06T09:06:21.944Z,4.02
2023-03-06T09:08:51.372Z,3.95
2023-03-06T09:11:18.523Z,4.01
2023-03-06T09:13:45.521Z,4.08
2023-03-06T09:16:12.792Z,4.21
2023-03-06T09:18:40.114Z,4.36
2023-03-06T09:21:07.902Z,4.46
2023-03-06T09:23:35.856Z,4.53
2023-03-06T09:26:03.533Z,4.65
2023-03-06T09:28:30.507Z,4.74
2023-03-06T09:30:58.007Z,4.87
2023-03-06T09:33:25.621Z,5.09
2023-03-06T09:35:55.386Z,5.32
2023-03-06T09:38:25.258Z,5.53
2023-03-06T09:40:58.428Z,5.41
2023-03-06T09:43:32.834Z,5.45
2023-03-06T09:45:59.892Z,5.63
2023-03-06T09:48:41.554Z,5.50
2023-03-06T09:51:15.713Z,5.69
2023-03-06T09:53:58.859Z,5.73
2023-03-06T09:56:31.883Z,5.65
2023-03-06T09:59:07.622Z,5.77
2023-03-06T10:01:40.057Z,5.77
2023-03-06T10:04:35.300Z,5.71
2023-03-06T10:07:22.560Z,5.69
2023-03-06T10:10:07.209Z,5.45
2023-03-06T10:12:45.116Z,5.42
2023-03-06T10:15:20.694Z,5.64
2023-03-06T10:17:48.182Z,5.55
2023-03-06T10:20:27.048Z,5.50
2023-03-06T10:23:31.325Z,5.54
2023-03-06T10:26:14.803Z,5.59
2023-03-06T10:28:44.705Z,5.41
2023-03-06T10:31:26.505Z,5.36
2023-03-06T10:33:59.396Z,5.48
2023-03-06T10:36:28.881Z,5.45
2023-03-06T10:38:58.544Z,5.25
2023-03-06T10:41:31.362Z,5.13
2023-03-06T10:44:01.491Z,5.14
2023-03-06T10:46:40.001Z,5.28
2023-03-06T10:49:27.870Z,5.35
2023-03-06T10:52:20.106Z,5.20
2023-03-06T10:54:48.361Z,5.07
2023-03-06T10:57:26.025Z,4.94
2023-03-06T10:59:59.146Z,4.93
2023-03-06T11:02:29.089Z,5.01
2023-03-06T11:04:58.130Z,5.13
2023-03-06T11:07:30.646Z,5.43
2023-03-06T11:09:57.604Z,5.80
2023-03-06T11:12:36.844Z,6.23
2023-03-06T11:15:17.514Z,6.62
2023-03-06T11:18:08.883Z,6.72
2023-03-06T11:20:52.117Z,6.57
2023-03-06T11:23:35.232Z,6.37
2023-03-06T11:26:18.181Z,6.48
2023-03-06T11:29:18.888Z,6.73
2023-03-06T11:31:56.413Z,7.01
2023-03-06T11:34:40.703Z,6.94
2023-03-06T11:37:25.562Z,6.65
2023-03-06T11:40:12.176Z,6.33
2023-03-06T11:43:04.856Z,6.11
2023-03-06T11:46:19.195Z,5.91
2023-03-06T11:49:17.316Z,5.96
2023-03-06T11:51:51.732Z,5.91
2023-03-06T11:54:18.752Z,5.84
2023-03-06T11:56:55.888Z,5.92
2023-03-06T11:59:40.432Z,6.02
2023-03-06T12:02:39.420Z,6.15
2023-03-06T12:05:06.888Z,6.32
2023-03-06T12:07:52.210Z,6.31
2023-03-06T12:10:27.749Z,6.50
2023-03-06T12:13:04.036Z,6.76
2023-03-06T12:15:52.376Z,6.91
2023-03-06T12:18:43.721Z,7.13
2023-03-06T12:21:32.580Z,7.18
2023-03-06T12:24:02.494Z,7.29
2023-03-06T12:26:53.942Z,7.25
2023-03-06T12:29:28.481Z,7.26
2023-03-06T12:32:19.204Z,7.30
2023-03-06T12:35:17.450Z,7.29
2023-03-06T12:37:59.583Z,7.30
2023-03-06T12:40:44.762Z,7.40
2023-03-06T12:43:44.919Z,7.75
2023-03-06T12:46:20.476Z,7.69
2023-03-06T12:49:05.527Z,7.61
2023-03-06T12:51:33.668Z,7.53
2023-03-06T12:54:03.786Z,7.57
2023-03-06T12:56:32.381Z,7.52
2023-03-06T12:59:03.326Z,7.55
2023-03-06T13:01:50.232Z,7.54
2023-03-06T13:04:55.400Z,7.62
2023-03-06T13:07:28.037Z,7.72
2023-03-06T13:10:13.642Z,7.68
2023-03-06T13:13:05.037Z,7.71
2023-03-06T13:15:34.884Z,7.72
2023-03-06T13:18:23.299Z,7.56
2023-03-06T13:20:54.903Z,7.43
2023-03-06T13:23:52.049Z,7.34
2023-03-06T13:26:25.525Z,7.32
2023-03-06T13:28:54.843Z,7.21
2023-03-06T13:31:33.664Z,6.98
2023-03-06T13:34:06.662Z,6.92
2023-03-06T13:36:39.066Z,6.77
2023-03-06T13:39:10.684Z,6.82
2023-03-06T13:42:00.757Z,7.00
2023-03-06T13:44:28.772Z,7.07
2023-03-06T13:47:00.080Z,7.08
2023-03-06T13:49:27.568Z,7.16
2023-03-06T13:51:54.481Z,7.11
2023-03-06T13:54:41.191Z,6.96
2023-03-06T13:57:19.127Z,6.88
2023-03-06T14:00:10.309Z,6.91
2023-03-06T14:03:02.228Z,6.67
2023-03-06T14:05:47.817Z,6.49
2023-03-06T14:08:28.668Z,6.52
2023-03-06T14:11:21.875Z,6.51
2023-03-06T14:13:51.715Z,6.49
2023-03-06T14:16:22.350Z,6.41
2023-03-06T14:18:57.870Z,6.40
2023-03-06T14:21:31.069Z,6.36
2023-03-06T14:24:03.280Z,6.47
2023-03-06T14:26:41.648Z,6.53
2023-03-06T14:29:20.828Z,6.58
2023-03-06T14:31:51.302Z,6.64
2023-03-06T14:34:30.742Z,6.47
2023-03-06T14:37:03.401Z,6.37
2023-03-06T14:39:45.493Z,6.27
2023-03-06T14:42:24.837Z,6.15
2023-03-06T14:45:08.648Z,6.09
2023-03-06T14:47:38.002Z,6.02
2023-03-06T14:50:23.311Z,6.03
2023-03-06T14:53:03.245Z,6.10
2023-03-06T14:55:35.789Z,6.10
2023-03-06T14:58:11.344Z,6.11
2023-03-06T15:00:43.576Z,6.17
2023-03-06T15:03:20.705Z,6.06
2023-03-06T15:05:50.445Z,6.10
2023-03-06T15:08:24.265Z,6.15
2023-03-06T15:11:00.874Z,6.23
2023-03-06T15:13:29.928Z,6.10
2023-03-06T15:16:04.743Z,6.04
2023-03-06T15:18:35.682Z,5.98
2023-03-06T15:21:36.455Z,5.85
2023-03-06T15:24:37.030Z,5.87
2023-03-06T15:27:07.032Z,5.73
2023-03-06T15:29:39.363Z,5.57
2023-03-06T15:32:14.540Z,5.39
2023-03-06T15:34:41.542Z,4.98
2023-03-06T15:37:27.819Z,4.85
2023-03-06T15:40:09.492Z,4.74
2023-03-06T15:42:36.754Z,4.63
2023-03-06T15:45:16.107Z,4.37
2023-03-06T15:47:44.872Z,4.17
2023-03-06T15:50:20.824Z,4.12
2023-03-06T15:52:49.084Z,4.06
2023-03-06T15:55:19.250Z,3.94
2023-03-06T15:57:55.568Z,3.80
2023-03-06T16:00:34.796Z,3.68
2023-03-06T16:03:03.708Z,3.60
2023-03-06T16:05:30.843Z,3.55
2023-03-06T16:07:58.030Z,3.59
2023-03-06T16:10:30.292Z,3.62
2023-03-06T16:13:06.298Z,3.66
2023-03-06T16:15:38.961Z,3.71
2023-03-06T16:18:06.429Z,3.74
2023-03-06T16:20:36.627Z,3.73
2023-03-06T16:23:08.018Z,3.78
2023-03-06T16:25:35.028Z,3.84
2023-03-06T16:28:03.410Z,3.83
2023-03-06T16:30:33.264Z,3.86
2023-03-06T16:33:00.270Z,3.84
2023-03-06T16:35:27.863Z,3.81
2023-03-06T16:37:54.911Z,3.80
2023-03-06T16:40:29.090Z,3.75
2023-03-06T16:42:56.477Z,3.73
2023-03-06T16:45:24.642Z,3.74
2023-03-06T16:47:51.916Z,3.71
2023-03-06T16:50:26.873Z,3.67
2023-03-06T16:52:55.233Z,3.65
2023-03-06T16:55:23.233Z,3.63
2023-03-06T16:57:50.245Z,3.57
2023-03-06T17:00:18.670Z,3.53
2023-03-06T17:02:49.324Z,3.53
2023-03-06T17:05:17.410Z,3.48
2023-03-06T17:07:44.462Z,3.43
2023-03-06T17:10:13.998Z,3.43
2023-03-06T17:12:41.384Z,3.39
2023-03-06T17:15:09.130Z,3.38
2023-03-06T17:17:36.087Z,3.29
2023-03-06T17:20:04.573Z,3.26
2023-03-06T17:22:36.026Z,3.21
2023-03-06T17:25:07.199Z,3.20
2023-03-06T17:27:35.313Z,3.18
2023-03-06T17:30:03.480Z,3.19
2023-03-06T17:32:30.759Z,3.20
2023-03-06T17:34:57.611Z,3.20
2023-03-06T17:37:24.532Z,3.19
2023-03-06T17:39:51.669Z,3.13
2023-03-06T17:42:18.506Z,3.13
2023-03-06T17:44:46.131Z,3.16
2023-03-06T17:47:13.128Z,3.16
2023-03-06T17:49:40.309Z,3.18
2023-03-06T17:52:07.555Z,3.17
2023-03-06T17:54:34.741Z,3.17
2023-03-06T17:57:03.658Z,3.13
2023-03-06T17:59:31.294Z,3.10
2023-03-06T18:01:59.551Z,3.05
2023-03-06T18:04:27.179Z,3.06
2023-03-06T18:06:54.246Z,3.05
2023-03-06T18:09:21.350Z,3.04
2023-03-06T18:11:48.676Z,3.05
2023-03-06T18:14:15.991Z,3.05
2023-03-06T18:16:43.225Z,3.02
2023-03-06T18:19:11.547Z,2.98
2023-03-06T18:21:39.513Z,2.97
2023-03-06T18:24:07.536Z,2.95
2023-03-06T18:26:34.824Z,2.93
2023-03-06T18:29:04.758Z,2.95
2023-03-06T18:31:35.071Z,2.93
2023-03-06T18:34:06.936Z,2.87
2023-03-06T18:36:34.664Z,2.82
2023-03-06T18:39:04.001Z,2.76
2023-03-06T18:41:31.778Z,2.73
2023-03-06T18:44:01.036Z,2.76
2023-03-06T18:46:36.985Z,2.75
2023-03-06T18:49:04.763Z,2.77
2023-03-06T18:51:32.406Z,2.78
2023-03-06T18:54:00.889Z,2.79
2023-03-06T18:56:28.610Z,2.84
2023-03-06T18:58:56.089Z,2.88
2023-03-06T19:01:24.117Z,2.88
2023-03-06T19:03:51.173Z,2.91
2023-03-06T19:06:18.736Z,2.97
2023-03-06T19:08:46.429Z,3.01
2023-03-06T19:11:15.661Z,3.05
2023-03-06T19:13:43.093Z,2.96
2023-03-06T19:16:17.591Z,2.97
2023-03-06T19:18:44.687Z,2.97
2023-03-06T19:21:17.569Z,2.94
2023-03-06T19:23:44.970Z,3.02
2023-03-06T19:26:12.113Z,3.08
2023-03-06T19:28:41.310Z,3.14
2023-03-06T19:31:19.486Z,3.23
2023-03-06T19:33:48.680Z,3.30
2023-03-06T19:36:17.609Z,3.29
2023-03-06T19:38:45.239Z,3.32
2023-03-06T19:41:13.958Z,3.35
2023-03-06T19:43:42.530Z,3.37
2023-03-06T19:46:13.776Z,3.39
2023-03-06T19:48:41.840Z,3.41
2023-03-06T19:51:09.481Z,3.44
2023-03-06T19:53:36.513Z,3.46
2023-03-06T19:56:09.242Z,3.49
2023-03-06T19:58:36.302Z,3.49
2023-03-06T20:01:11.159Z,3.50
2023-03-06T20:03:38.864Z,3.47
2023-03-06T20:06:09.101Z,3.47
2023-03-06T20:08:36.905Z,3.49
2023-03-06T20:11:04.712Z,3.52
2023-03-06T20:13:32.224Z,3.54
2023-03-06T20:16:03.068Z,3.60
2023-03-06T20:18:30.036Z,3.66
2023-03-06T20:20:58.935Z,3.67
2023-03-06T20:23:27.050Z,3.73
2023-03-06T20:25:54.056Z,3.78
2023-03-06T20:28:21.721Z,3.81
2023-03-06T20:30:49.423Z,3.85
2023-03-06T20:33:16.911Z,3.86
2023-03-06T20:35:45.750Z,3.80
2023-03-06T20:38:14.522Z,3.71
2023-03-06T20:40:42.461Z,3.58
2023-03-06T20:43:09.562Z,3.49
2023-03-06T20:45:36.795Z,3.43
2023-03-06T20:48:04.067Z,3.44
2023-03-06T20:50:31.271Z,3.45
2023-03-06T20:52:58.935Z,3.47
2023-03-06T20:55:25.782Z,3.49
2023-03-06T20:57:54.450Z,3.53
2023-03-06T21:00:22.214Z,3.51
2023-03-06T21:02:49.103Z,3.53
2023-03-06T21:05:16.053Z,3.53
2023-03-06T21:07:43.091Z,3.56
2023-03-06T21:10:11.142Z,3.57
2023-03-06T21:12:38.516Z,3.55
2023-03-06T21:15:06.207Z,3.59
2023-03-06T21:17:33.176Z,3.59
2023-03-06T21:20:00.108Z,3.59
2023-03-06T21:22:27.356Z,3.62
2023-03-06T21:24:54.340Z,3.62
2023-03-06T21:27:21.284Z,3.60
2023-03-06T21:29:48.203Z,3.63
2023-03-06T21:32:15.782Z,3.65
2023-03-06T21:34:43.082Z,3.65
2023-03-06T21:37:10.078Z,3.66
2023-03-06T21:39:38.633Z,3.66
2023-03-06T21:42:06.088Z,3.63
2023-03-06T21:44:34.997Z,3.62
2023-03-06T21:47:02.197Z,3.63
2023-03-06T21:49:30.123Z,3.65
2023-03-06T21:51:57.593Z,3.66
2023-03-06T21:54:24.841Z,3.69
2023-03-06T21:56:51.745Z,3.70
2023-03-06T21:59:18.685Z,3.67
2023-03-06T22:01:47.536Z,3.66
2023-03-06T22:04:14.637Z,3.67
2023-03-06T22:06:41.993Z,3.72
2023-03-06T22:09:09.966Z,3.73
2023-03-06T22:11:37.411Z,3.73
2023-03-06T22:14:05.346Z,3.73
2023-03-06T22:16:32.728Z,3.73
2023-03-06T22:18:59.878Z,3.73
2023-03-06T22:21:26.934Z,3.71
2023-03-06T22:23:57.890Z,3.68
2023-03-06T22:26:26.264Z,3.64
2023-03-06T22:28:53.328Z,3.63
2023-03-06T22:31:26.424Z,3.59
2023-03-06T22:33:55.226Z,3.54
2023-03-06T22:36:23.462Z,3.53
2023-03-06T22:38:55.069Z,3.52
2023-03-06T22:41:23.389Z,3.52
2023-03-06T22:43:51.014Z,3.57
2023-03-06T22:46:18.106Z,3.61
2023-03-06T22:48:45.473Z,3.65
2023-03-06T22:51:15.191Z,3.69
2023-03-06T22:53:42.650Z,3.75
2023-03-06T22:56:15.174Z,3.74
2023-03-06T22:58:42.155Z,3.76
2023-03-06T23:01:10.557Z,3.77
2023-03-06T23:03:40.074Z,3.77
2023-03-06T23:06:13.440Z,3.77
2023-03-06T23:08:41.282Z,3.76
2023-03-06T23:11:14.481Z,3.78
2023-03-06T23:14:00.925Z,3.79
2023-03-06T23:16:47.451Z,3.82
2023-03-06T23:19:33.603Z,3.88
2023-03-06T23:22:19.574Z,3.92
2023-03-06T23:25:06.211Z,3.94
2023-03-06T23:27:35.443Z,3.97
2023-03-06T23:30:03.216Z,4.04
2023-03-06T23:32:32.846Z,4.04
2023-03-06T23:35:00.666Z,4.05
2023-03-06T23:37:27.581Z,4.07
2023-03-06T23:39:55.379Z,4.09
2023-03-06T23:42:22.697Z,4.11
2023-03-06T23:44:49.646Z,4.07
2023-03-06T23:47:17.517Z,4.07
2023-03-06T23:49:44.956Z,4.06
2023-03-06T23:52:11.957Z,4.04
2023-03-06T23:54:39.247Z,4.02
2023-03-06T23:57:06.940Z,3.99
2023-03-06T23:59:33.987Z,3.98
